Roche Harbor, Washington
Current Conditions -  °F | °C
As of 8:53 AM on Tuesday 27 Jan 2015 (Local Time) from KFHR Reporting Station
Overcast Overcast  
Wind Chill: 48°   Ceiling: 2600
Heat Index: 48°   Visibility: 7mi
Dew Point: 46°   Wind: 0mph
Humidity: 93%   Direction: NA
Pressure: 30.04"   Gusts: NA
Location:  48.5377°N, 123.083°W
Report Text: KFHR 271653Z AUTO 00000KT 7SM FEW008 OVC026 09/08 A3004 RMK AO2 SLP174 T00890078
Loading
Personal Weather Stations






























Interactive Weather Map New forecast layout! Learn more

10-Day Weather Forecast

Advertisements
Track Severe Weather on mobile